createdAt,value
2022-11-05T00:01:08.896Z,101221.47
2022-11-05T00:02:29.662Z,101220.09
2022-11-05T00:03:50.699Z,101228.75
2022-11-05T00:05:11.162Z,101216.09
2022-11-05T00:06:32.014Z,101218.97
2022-11-05T00:07:56.945Z,101225.78
2022-11-05T00:09:17.723Z,101222.22
2022-11-05T00:10:24.796Z,101225.38
2022-11-05T00:11:41.821Z,101219.81
2022-11-05T00:13:02.504Z,101221.97
2022-11-05T00:14:23.401Z,101224.09
2022-11-05T00:15:44.405Z,101229.09
2022-11-05T00:16:47.730Z,101224.63
2022-11-05T00:17:50.217Z,101229.03
2022-11-05T00:19:07.258Z,101227.31
2022-11-05T00:20:13.662Z,101223.38
2022-11-05T00:21:30.661Z,101227.84
2022-11-05T00:22:51.213Z,101228.06
2022-11-05T00:24:11.985Z,101236.03
2022-11-05T00:25:16.831Z,101241.84
2022-11-05T00:26:21.398Z,101236.25
2022-11-05T00:27:23.649Z,101230.94
2022-11-05T00:28:27.576Z,101239.34
2022-11-05T00:29:29.740Z,101242.25
2022-11-05T00:30:32.875Z,101245.13
2022-11-05T00:31:35.008Z,101241.91
2022-11-05T00:32:38.276Z,101236.94
2022-11-05T00:33:43.665Z,101235.69
2022-11-05T00:34:45.975Z,101238.16
2022-11-05T00:35:49.165Z,101242.50
2022-11-05T00:36:51.562Z,101238.13
2022-11-05T00:37:55.139Z,101235.63
2022-11-05T00:38:57.229Z,101239.66
2022-11-05T00:40:00.428Z,101236.56
2022-11-05T00:41:02.758Z,101241.09
2022-11-05T00:42:24.918Z,101242.91
2022-11-05T00:43:45.771Z,101239.34
2022-11-05T00:45:02.184Z,101244.66
2022-11-05T00:46:05.504Z,101234.13
2022-11-05T00:47:22.490Z,101243.22
2022-11-05T00:48:43.329Z,101247.25
2022-11-05T00:49:45.595Z,101242.88
2022-11-05T00:50:48.784Z,101237.06
2022-11-05T00:52:11.423Z,101240.88
2022-11-05T00:53:15.013Z,101240.50
2022-11-05T00:54:17.271Z,101246.84
2022-11-05T00:55:20.603Z,101239.44
2022-11-05T00:56:23.936Z,101240.50
2022-11-05T00:57:27.595Z,101243.66
2022-11-05T00:58:30.726Z,101245.44
2022-11-05T00:59:32.861Z,101246.16
2022-11-05T01:00:37.984Z,101245.50
2022-11-05T01:01:40.228Z,101243.22
2022-11-05T01:02:43.778Z,101240.13
2022-11-05T01:03:51.521Z,101237.19
2022-11-05T01:04:54.213Z,101244.09
2022-11-05T01:06:00.350Z,101245.78
2022-11-05T01:07:02.772Z,101240.84
2022-11-05T01:08:06.080Z,101254.09
2022-11-05T01:09:08.325Z,101256.19
2022-11-05T01:10:11.650Z,101250.16
2022-11-05T01:11:33.375Z,101249.59
2022-11-05T01:12:37.259Z,101246.91
2022-11-05T01:13:41.646Z,101245.03
2022-11-05T01:14:44.069Z,101249.28
2022-11-05T01:15:48.245Z,101242.28
2022-11-05T01:16:50.604Z,101246.13
2022-11-05T01:17:53.836Z,101246.38
2022-11-05T01:18:56.039Z,101248.28
2022-11-05T01:19:59.375Z,101251.88
2022-11-05T01:21:11.452Z,101247.78
2022-11-05T01:22:13.841Z,101253.44
2022-11-05T01:23:18.164Z,101251.25
2022-11-05T01:24:20.763Z,101254.25
2022-11-05T01:25:24.014Z,101252.81
2022-11-05T01:26:27.352Z,101263.16
2022-11-05T01:27:30.944Z,101266.16
2022-11-05T01:28:34.484Z,101262.25
2022-11-05T01:29:37.689Z,101259.50
2022-11-05T01:30:40.227Z,101260.53
2022-11-05T01:31:43.586Z,101261.78
2022-11-05T01:32:45.711Z,101257.09
2022-11-05T01:33:49.492Z,101263.59
2022-11-05T01:34:51.694Z,101264.81
2022-11-05T01:35:55.069Z,101269.22
2022-11-05T01:36:57.341Z,101265.19
2022-11-05T01:38:00.603Z,101271.19
2022-11-05T01:39:03.144Z,101262.19
2022-11-05T01:40:08.424Z,101272.59
2022-11-05T01:41:11.042Z,101269.06
2022-11-05T01:42:20.370Z,101275.88
2022-11-05T01:43:23.910Z,101274.47
2022-11-05T01:44:55.825Z,101280.69
2022-11-05T01:46:00.304Z,101275.97
2022-11-05T01:47:02.685Z,101276.78
2022-11-05T01:48:10.485Z,101275.88
2022-11-05T01:49:20.394Z,101273.53
2022-11-05T01:50:37.453Z,101267.72
2022-11-05T01:51:40.499Z,101260.81
2022-11-05T01:52:43.755Z,101264.72
2022-11-05T01:53:50.015Z,101264.81
2022-11-05T01:54:52.303Z,101265.34
2022-11-05T01:56:00.695Z,101266.56
2022-11-05T01:57:06.326Z,101264.66
2022-11-05T01:58:14.386Z,101266.25
2022-11-05T01:59:20.764Z,101264.00
2022-11-05T02:00:25.406Z,101263.34
2022-11-05T02:01:29.515Z,101266.28
2022-11-05T02:02:32.119Z,101265.66
2022-11-05T02:03:36.336Z,101268.34
2022-11-05T02:04:42.883Z,101258.53
2022-11-05T02:05:47.913Z,101268.31
2022-11-05T02:06:50.262Z,101263.38
2022-11-05T02:07:55.455Z,101254.03
2022-11-05T02:09:02.283Z,101250.97
2022-11-05T02:10:09.273Z,101257.75
2022-11-05T02:11:13.355Z,101253.28
2022-11-05T02:12:16.873Z,101255.78
2022-11-05T02:13:19.141Z,101255.41
2022-11-05T02:14:22.934Z,101254.31
2022-11-05T02:15:40.577Z,101253.44
2022-11-05T02:16:49.531Z,101253.94
2022-11-05T02:17:58.077Z,101251.03
2022-11-05T02:19:13.442Z,101257.84
2022-11-05T02:20:28.838Z,101252.94
2022-11-05T02:22:02.432Z,101260.25
2022-11-05T02:23:38.929Z,101257.13
2022-11-05T02:25:02.412Z,101266.88
2022-11-05T02:26:31.217Z,101263.34
2022-11-05T02:28:05.274Z,101269.44
2022-11-05T02:29:41.545Z,101271.28
2022-11-05T02:30:50.937Z,101275.41
2022-11-05T02:32:00.973Z,101276.50
2022-11-05T02:33:30.768Z,101282.19
2022-11-05T02:34:42.653Z,101283.44
2022-11-05T02:36:07.978Z,101283.03
2022-11-05T02:37:18.539Z,101284.63
2022-11-05T02:38:34.343Z,101285.75
2022-11-05T02:39:45.184Z,101291.34
2022-11-05T02:40:54.195Z,101284.28
2022-11-05T02:42:09.387Z,101291.78
2022-11-05T02:43:27.600Z,101292.06
2022-11-05T02:44:39.132Z,101297.75
2022-11-05T02:45:50.734Z,101296.06
2022-11-05T02:47:00.484Z,101295.63
2022-11-05T02:48:11.222Z,101292.22
2022-11-05T02:49:27.150Z,101293.69
2022-11-05T02:50:34.438Z,101298.00
2022-11-05T02:51:45.816Z,101296.00
2022-11-05T02:52:57.064Z,101303.94
2022-11-05T02:54:08.836Z,101299.63
2022-11-05T02:55:18.720Z,101302.13
2022-11-05T02:56:36.821Z,101310.69
2022-11-05T02:57:46.519Z,101303.69
2022-11-05T02:58:49.174Z,101301.47
2022-11-05T03:00:02.565Z,101295.13
2022-11-05T03:01:07.162Z,101293.31
2022-11-05T03:02:12.197Z,101297.03
2022-11-05T03:03:24.910Z,101302.53
2022-11-05T03:04:29.035Z,101313.75
2022-11-05T03:05:39.933Z,101309.03
2022-11-05T03:07:08.029Z,101310.16
2022-11-05T03:08:19.114Z,101311.19
2022-11-05T03:09:51.061Z,101312.81
2022-11-05T03:10:59.936Z,101309.03
2022-11-05T03:12:15.187Z,101318.91
2022-11-05T03:13:22.785Z,101318.31
2022-11-05T03:14:36.118Z,101310.22
2022-11-05T03:15:51.061Z,101313.72
2022-11-05T03:17:02.464Z,101308.97
2022-11-05T03:18:13.644Z,101314.03
2022-11-05T03:19:22.297Z,101309.13
2022-11-05T03:20:30.254Z,101305.53
2022-11-05T03:21:45.439Z,101309.28
2022-11-05T03:22:54.962Z,101305.06
2022-11-05T03:24:04.532Z,101313.03
2022-11-05T03:25:12.229Z,101308.50
2022-11-05T03:26:20.423Z,101309.34
2022-11-05T03:27:28.171Z,101303.44
2022-11-05T03:28:36.667Z,101309.44
2022-11-05T03:29:43.823Z,101306.47
2022-11-05T03:30:49.573Z,101307.06
2022-11-05T03:31:55.148Z,101312.81
2022-11-05T03:33:04.834Z,101298.44
2022-11-05T03:34:12.010Z,101316.22
2022-11-05T03:35:20.519Z,101310.91
2022-11-05T03:36:27.871Z,101320.09
2022-11-05T03:37:35.247Z,101320.44
2022-11-05T03:38:40.353Z,101320.72
2022-11-05T03:39:49.186Z,101325.88
2022-11-05T03:40:55.485Z,101320.81
2022-11-05T03:42:00.370Z,101324.41
2022-11-05T03:43:06.802Z,101323.56
2022-11-05T03:44:12.733Z,101320.94
2022-11-05T03:45:19.264Z,101317.53
2022-11-05T03:46:28.272Z,101319.25
2022-11-05T03:47:32.899Z,101321.47
2022-11-05T03:48:40.455Z,101321.63
2022-11-05T03:49:54.827Z,101315.34
2022-11-05T03:51:04.076Z,101320.97
2022-11-05T03:52:11.540Z,101326.78
2022-11-05T03:53:18.313Z,101324.03
2022-11-05T03:54:21.122Z,101316.59
2022-11-05T03:55:30.650Z,101316.84
2022-11-05T03:56:38.684Z,101327.03
2022-11-05T03:57:47.192Z,101320.84
2022-11-05T03:58:53.357Z,101317.88
2022-11-05T03:59:59.640Z,101320.50
2022-11-05T04:01:02.843Z,101316.00
2022-11-05T04:02:06.704Z,101321.34
2022-11-05T04:03:09.473Z,101314.41
2022-11-05T04:04:13.069Z,101320.09
2022-11-05T04:05:16.863Z,101326.59
2022-11-05T04:06:37.682Z,101320.53
2022-11-05T04:08:03.786Z,101325.44
2022-11-05T04:09:24.375Z,101322.97
2022-11-05T04:10:44.847Z,101320.22
2022-11-05T04:12:05.724Z,101327.06
2022-11-05T04:13:25.707Z,101324.44
2022-11-05T04:14:27.821Z,101332.59
2022-11-05T04:15:31.527Z,101335.28
2022-11-05T04:16:52.301Z,101337.84
2022-11-05T04:17:55.627Z,101343.50
2022-11-05T04:18:58.866Z,101344.13
2022-11-05T04:20:19.587Z,101341.34
2022-11-05T04:21:46.809Z,101348.59
2022-11-05T04:23:07.676Z,101347.38
2022-11-05T04:24:11.103Z,101351.53
2022-11-05T04:25:14.658Z,101352.50
2022-11-05T04:26:23.481Z,101346.84
2022-11-05T04:27:25.924Z,101349.47
2022-11-05T04:28:49.510Z,101346.13
2022-11-05T04:30:10.282Z,101342.47
2022-11-05T04:31:12.437Z,101348.59
2022-11-05T04:32:14.525Z,101340.22
2022-11-05T04:33:18.402Z,101338.78
2022-11-05T04:34:22.291Z,101345.31
2022-11-05T04:35:26.416Z,101345.97
2022-11-05T04:36:30.080Z,101348.28
2022-11-05T04:37:33.305Z,101347.94
2022-11-05T04:38:36.481Z,101350.75
2022-11-05T04:39:38.668Z,101352.56
2022-11-05T04:40:42.207Z,101361.00
2022-11-05T04:41:45.121Z,101356.38
2022-11-05T04:42:48.372Z,101355.03
2022-11-05T04:43:50.489Z,101362.03
2022-11-05T04:44:53.662Z,101354.81
2022-11-05T04:45:56.822Z,101350.59
2022-11-05T04:46:59.170Z,101355.91
2022-11-05T04:48:02.829Z,101354.09
2022-11-05T04:49:04.949Z,101354.63
2022-11-05T04:50:09.613Z,101359.28
2022-11-05T04:51:11.860Z,101358.34
2022-11-05T04:52:18.103Z,101364.66
2022-11-05T04:53:20.328Z,101358.63
2022-11-05T04:54:23.826Z,101362.97
2022-11-05T04:55:27.069Z,101369.03
2022-11-05T04:56:29.215Z,101375.19
2022-11-05T04:57:32.862Z,101378.31
2022-11-05T04:58:38.365Z,101379.34
2022-11-05T04:59:41.573Z,101375.31
2022-11-05T05:00:43.795Z,101375.16
2022-11-05T05:01:47.139Z,101380.97
2022-11-05T05:02:50.000Z,101384.91
2022-11-05T05:03:54.254Z,101387.34
2022-11-05T05:04:56.399Z,101376.69
2022-11-05T05:06:03.796Z,101380.03
2022-11-05T05:07:06.344Z,101382.38
2022-11-05T05:08:10.946Z,101390.94
2022-11-05T05:09:13.050Z,101388.13
2022-11-05T05:10:16.363Z,101385.03
2022-11-05T05:11:20.155Z,101386.19
2022-11-05T05:12:23.943Z,101387.69
2022-11-05T05:13:26.134Z,101391.50
2022-11-05T05:14:29.302Z,101395.28
2022-11-05T05:15:31.506Z,101396.38
2022-11-05T05:16:34.607Z,101393.69
2022-11-05T05:17:36.812Z,101392.13
2022-11-05T05:18:45.932Z,101391.44
2022-11-05T05:20:06.905Z,101388.03
2022-11-05T05:21:27.774Z,101390.06
2022-11-05T05:22:31.097Z,101397.63
2022-11-05T05:23:34.682Z,101395.16
2022-11-05T05:24:38.149Z,101400.81
2022-11-05T05:25:40.363Z,101393.19
2022-11-05T05:26:45.955Z,101396.91
2022-11-05T05:27:48.204Z,101385.00
2022-11-05T05:28:51.554Z,101398.16
2022-11-05T05:29:53.715Z,101403.69
2022-11-05T05:31:00.420Z,101411.50
2022-11-05T05:32:02.550Z,101407.84
2022-11-05T05:33:06.382Z,101407.72
2022-11-05T05:34:11.184Z,101406.41
2022-11-05T05:35:14.535Z,101400.06
2022-11-05T05:36:16.795Z,101406.50
2022-11-05T05:37:20.751Z,101404.50
2022-11-05T05:38:23.111Z,101398.94
2022-11-05T05:39:28.339Z,101399.75
2022-11-05T05:40:30.566Z,101411.91
2022-11-05T05:41:33.883Z,101410.91
2022-11-05T05:42:41.770Z,101413.28
2022-11-05T05:43:46.382Z,101410.69
2022-11-05T05:44:48.866Z,101413.06
2022-11-05T05:45:52.174Z,101404.97
2022-11-05T05:46:54.743Z,101411.00
2022-11-05T05:47:58.121Z,101410.81
2022-11-05T05:49:00.453Z,101406.22
2022-11-05T05:50:03.934Z,101412.69
2022-11-05T05:51:08.151Z,101409.59
2022-11-05T05:52:11.322Z,101414.81
2022-11-05T05:53:13.816Z,101417.84
2022-11-05T05:54:17.832Z,101410.25
2022-11-05T05:55:21.415Z,101412.34
2022-11-05T05:56:24.774Z,101419.16
2022-11-05T05:57:26.920Z,101414.38
2022-11-05T05:58:34.139Z,101418.94
2022-11-05T05:59:37.494Z,101422.94
2022-11-05T06:00:40.034Z,101425.69
2022-11-05T06:01:43.495Z,101427.97
2022-11-05T06:02:46.086Z,101436.16
2022-11-05T06:03:50.302Z,101425.19
2022-11-05T06:04:52.678Z,101429.22
2022-11-05T06:06:00.703Z,101424.66
2022-11-05T06:07:03.162Z,101430.38
2022-11-05T06:08:07.181Z,101429.47
2022-11-05T06:09:09.366Z,101426.63
2022-11-05T06:10:12.623Z,101430.94
2022-11-05T06:11:16.514Z,101425.69
2022-11-05T06:12:19.698Z,101427.84
2022-11-05T06:13:21.917Z,101435.16
2022-11-05T06:14:25.240Z,101432.41
2022-11-05T06:15:30.534Z,101434.34
2022-11-05T06:16:39.207Z,101433.56
2022-11-05T06:17:43.590Z,101434.22
2022-11-05T06:18:47.271Z,101432.84
2022-11-05T06:19:49.759Z,101440.28
2022-11-05T06:20:53.148Z,101433.00
2022-11-05T06:21:55.341Z,101438.34
2022-11-05T06:22:59.284Z,101435.09
2022-11-05T06:24:02.278Z,101433.44
2022-11-05T06:25:06.483Z,101448.69
2022-11-05T06:26:11.323Z,101437.03
2022-11-05T06:27:15.998Z,101439.91
2022-11-05T06:28:18.213Z,101436.94
2022-11-05T06:29:21.595Z,101440.34
2022-11-05T06:30:24.249Z,101432.22
2022-11-05T06:31:27.469Z,101440.78
2022-11-05T06:32:30.837Z,101435.09
2022-11-05T06:33:34.187Z,101436.81
2022-11-05T06:34:38.080Z,101439.25
2022-11-05T06:35:40.240Z,101437.09
2022-11-05T06:36:43.437Z,101437.44
2022-11-05T06:37:45.658Z,101440.84
2022-11-05T06:38:48.881Z,101431.59
2022-11-05T06:39:51.068Z,101440.50
2022-11-05T06:40:54.337Z,101443.00
2022-11-05T06:42:17.121Z,101446.91
2022-11-05T07:19:57.488Z,101508.28
2022-11-05T07:20:59.953Z,101511.78
2022-11-05T07:22:03.185Z,101507.22
2022-11-05T07:23:07.661Z,101505.31
2022-11-05T07:24:10.870Z,101505.66
2022-11-05T07:25:13.046Z,101508.22
2022-11-05T07:26:16.195Z,101507.63
2022-11-05T07:27:18.503Z,101509.47
2022-11-05T07:28:21.875Z,101511.41
2022-11-05T07:29:24.346Z,101509.50
2022-11-05T07:30:27.832Z,101513.75
2022-11-05T07:31:30.025Z,101508.91
2022-11-05T07:32:37.771Z,101510.03
2022-11-05T07:33:40.164Z,101513.06
2022-11-05T07:34:43.606Z,101512.56
2022-11-05T07:35:47.191Z,101512.50
2022-11-05T07:36:50.450Z,101513.59
2022-11-05T07:37:54.271Z,101509.72
2022-11-05T07:39:00.563Z,101515.22
2022-11-05T07:40:03.115Z,101518.47
2022-11-05T07:41:06.776Z,101512.56
2022-11-05T07:42:13.432Z,101516.91
2022-11-05T07:43:16.954Z,101518.63
2022-11-05T07:44:20.300Z,101517.53
2022-11-05T07:45:23.579Z,101518.88
2022-11-05T07:46:27.000Z,101519.25
2022-11-05T07:47:29.643Z,101523.34
2022-11-05T07:48:32.915Z,101524.06
2022-11-05T07:49:35.190Z,101533.22
2022-11-05T07:50:39.029Z,101534.97
2022-11-05T07:51:42.721Z,101528.63
2022-11-05T07:52:46.257Z,101534.38
2022-11-05T07:53:48.783Z,101539.75
2022-11-05T07:54:52.046Z,101534.41
2022-11-05T07:55:54.283Z,101543.06
2022-11-05T07:56:57.583Z,101547.84
2022-11-05T07:57:59.866Z,101553.78
2022-11-05T07:59:03.160Z,101547.25
2022-11-05T08:00:06.451Z,101556.53
2022-11-05T08:01:09.928Z,101550.41
2022-11-05T08:02:12.944Z,101552.59
2022-11-05T08:03:18.577Z,101548.56
2022-11-05T08:04:21.384Z,101550.28
2022-11-05T08:05:24.848Z,101547.81
2022-11-05T08:06:28.183Z,101543.88
2022-11-05T08:07:31.832Z,101547.91
2022-11-05T08:08:35.275Z,101546.53
2022-11-05T08:09:37.741Z,101550.81
2022-11-05T08:10:41.219Z,101553.88
2022-11-05T08:11:43.422Z,101558.34
2022-11-05T08:12:46.725Z,101558.34
2022-11-05T08:13:48.947Z,101565.66
2022-11-05T08:14:52.371Z,101562.66
2022-11-05T08:15:56.762Z,101566.75
2022-11-05T08:16:59.946Z,101566.44
2022-11-05T08:18:03.373Z,101569.06
2022-11-05T08:19:06.620Z,101563.03
2022-11-05T08:20:10.101Z,101565.34
2022-11-05T08:21:13.318Z,101571.72
2022-11-05T08:22:15.691Z,101566.50
2022-11-05T08:23:20.464Z,101563.16
2022-11-05T08:24:23.698Z,101569.59
2022-11-05T08:25:26.558Z,101571.03
2022-11-05T08:26:29.907Z,101569.47
2022-11-05T08:27:32.028Z,101570.88
2022-11-05T08:28:35.209Z,101573.50
2022-11-05T08:29:37.379Z,101571.41
2022-11-05T08:30:41.148Z,101572.25
2022-11-05T08:31:43.334Z,101571.25
2022-11-05T08:32:46.633Z,101577.31
2022-11-05T08:33:48.895Z,101571.22
2022-11-05T08:34:52.056Z,101575.00
2022-11-05T08:35:54.229Z,101582.06
2022-11-05T08:36:57.519Z,101583.97
2022-11-05T08:38:00.850Z,101573.13
2022-11-05T08:39:05.561Z,101576.13
2022-11-05T08:40:09.614Z,101577.75
2022-11-05T08:41:12.805Z,101572.19
2022-11-05T08:42:14.975Z,101569.44
2022-11-05T08:43:18.924Z,101570.81
2022-11-05T08:44:21.160Z,101573.50
2022-11-05T08:45:24.875Z,101566.91
2022-11-05T08:46:28.149Z,101562.41
2022-11-05T08:47:30.411Z,101568.78
2022-11-05T08:48:33.634Z,101576.69
2022-11-05T08:49:36.925Z,101577.47
2022-11-05T08:50:39.752Z,101575.66
2022-11-05T08:51:44.618Z,101574.84
2022-11-05T08:52:46.713Z,101568.00
2022-11-05T08:53:49.863Z,101576.75
2022-11-05T08:54:53.444Z,101563.53
2022-11-05T08:55:59.619Z,101565.38
2022-11-05T08:57:02.790Z,101567.50
2022-11-05T08:58:07.644Z,101567.47
2022-11-05T08:59:11.172Z,101571.22
2022-11-05T09:00:14.326Z,101571.47
2022-11-05T09:01:17.849Z,101569.81
2022-11-05T09:02:20.165Z,101568.53
2022-11-05T09:03:23.466Z,101564.53
2022-11-05T09:04:25.624Z,101566.63
2022-11-05T09:05:29.187Z,101564.72
2022-11-05T09:06:32.481Z,101564.66
2022-11-05T09:07:34.748Z,101557.72
2022-11-05T09:08:38.086Z,101562.34
2022-11-05T09:09:40.389Z,101562.31
2022-11-05T09:10:46.256Z,101566.09
2022-11-05T09:12:11.009Z,101569.00
2022-11-05T09:13:18.373Z,101561.66
2022-11-05T09:14:22.553Z,101572.81
2022-11-05T09:15:26.413Z,101569.06
2022-11-05T09:16:30.154Z,101570.97
2022-11-05T09:17:32.457Z,101569.50
2022-11-05T09:18:35.838Z,101575.00
2022-11-05T09:19:40.020Z,101571.41
2022-11-05T09:20:43.955Z,101569.50
2022-11-05T09:21:46.535Z,101572.88
2022-11-05T09:22:49.800Z,101571.50
2022-11-05T09:23:52.339Z,101576.84
2022-11-05T09:24:55.801Z,101581.91
2022-11-05T09:26:00.502Z,101579.03
2022-11-05T09:27:02.743Z,101571.97
2022-11-05T09:28:14.623Z,101576.50
2022-11-05T09:29:19.640Z,101574.13
2022-11-05T09:30:22.010Z,101580.47
2022-11-05T09:31:25.603Z,101580.69
2022-11-05T09:32:27.862Z,101579.28
2022-11-05T09:33:31.193Z,101582.44
2022-11-05T09:34:33.810Z,101579.59
2022-11-05T09:35:40.310Z,101578.34
2022-11-05T09:36:44.495Z,101581.06
2022-11-05T09:37:46.786Z,101581.31
2022-11-05T09:38:50.004Z,101576.50
2022-11-05T09:39:52.436Z,101572.72
2022-11-05T09:41:00.972Z,101578.78
2022-11-05T09:42:08.106Z,101578.88
2022-11-05T09:43:17.500Z,101584.28
2022-11-05T09:44:24.143Z,101588.53
2022-11-05T09:45:28.884Z,101581.63
2022-11-05T09:46:42.197Z,101589.97
2022-11-05T09:47:50.843Z,101581.00
2022-11-05T09:48:56.581Z,101577.16
2022-11-05T09:50:02.615Z,101584.91
2022-11-05T09:51:06.938Z,101587.28
2022-11-05T09:52:14.318Z,101592.84
2022-11-05T09:53:20.115Z,101592.91
2022-11-05T09:54:26.814Z,101599.16
2022-11-05T09:55:34.719Z,101599.78
2022-11-05T09:56:41.590Z,101604.66
2022-11-05T09:57:51.155Z,101605.22
2022-11-05T09:58:59.535Z,101610.34
2022-11-05T10:00:04.085Z,101606.78
2022-11-05T10:01:12.908Z,101610.28
2022-11-05T10:02:19.806Z,101614.19
2022-11-05T10:03:24.687Z,101610.25
2022-11-05T10:04:31.403Z,101608.31
2022-11-05T10:05:35.848Z,101606.47
2022-11-05T10:06:45.056Z,101610.09
2022-11-05T10:07:51.690Z,101606.84
2022-11-05T10:09:03.387Z,101605.34
2022-11-05T10:10:09.575Z,101599.34
2022-11-05T10:11:19.512Z,101603.78
2022-11-05T10:12:26.332Z,101605.19
2022-11-05T10:13:38.444Z,101609.44
2022-11-05T10:14:46.235Z,101603.97
2022-11-05T10:15:56.878Z,101606.03
2022-11-05T10:17:05.381Z,101608.41
2022-11-05T10:18:16.904Z,101609.44
2022-11-05T10:19:24.738Z,101613.44
2022-11-05T10:20:34.276Z,101619.25
2022-11-05T10:22:04.850Z,101620.81
2022-11-05T10:23:10.137Z,101615.31
2022-11-05T10:24:15.787Z,101621.44
2022-11-05T10:25:20.970Z,101618.78
2022-11-05T10:26:27.066Z,101621.28
2022-11-05T10:27:33.903Z,101624.91
2022-11-05T10:28:39.271Z,101626.00
2022-11-05T10:29:43.838Z,101630.25
2022-11-05T10:30:49.917Z,101625.00
2022-11-05T10:31:53.852Z,101621.50
2022-11-05T10:33:00.802Z,101611.47
2022-11-05T10:34:07.769Z,101613.28
2022-11-05T10:35:15.034Z,101610.38
2022-11-05T10:36:22.896Z,101613.25
2022-11-05T10:37:25.909Z,101615.44
2022-11-05T10:38:29.139Z,101612.00
2022-11-05T10:39:34.285Z,101615.16
2022-11-05T10:40:45.393Z,101608.56
2022-11-05T10:42:05.030Z,101614.44
2022-11-05T10:43:14.375Z,101610.75
2022-11-05T10:44:31.016Z,101606.50
2022-11-05T10:45:46.732Z,101605.44
2022-11-05T10:46:59.386Z,101601.19
2022-11-05T10:48:19.361Z,101597.63
2022-11-05T10:49:39.074Z,101603.16
2022-11-05T10:50:42.763Z,101604.75
2022-11-05T10:51:46.830Z,101607.25
2022-11-05T10:52:58.824Z,101604.19
2022-11-05T10:54:06.871Z,101603.88
2022-11-05T10:55:18.610Z,101605.47
2022-11-05T10:56:34.272Z,101602.09
2022-11-05T10:57:38.914Z,101600.75
2022-11-05T10:58:56.061Z,101596.00
2022-11-05T11:01:45.843Z,101594.41
2022-11-05T11:02:50.481Z,101598.63
2022-11-05T11:04:05.077Z,101596.50
2022-11-05T11:05:09.057Z,101600.19
2022-11-05T11:06:23.386Z,101596.72
2022-11-05T11:07:27.269Z,101594.84
2022-11-05T11:08:31.180Z,101596.69
2022-11-05T11:09:37.639Z,101596.22
2022-11-05T11:10:48.180Z,101596.97
2022-11-05T11:12:00.827Z,101590.31
2022-11-05T11:13:03.405Z,101580.69
2022-11-05T11:14:19.802Z,101590.75
2022-11-05T11:15:27.436Z,101590.78
2022-11-05T11:16:35.384Z,101588.25
2022-11-05T11:17:40.431Z,101588.75
2022-11-05T11:18:44.137Z,101589.00
2022-11-05T11:19:47.562Z,101581.34
2022-11-05T11:20:49.720Z,101584.28
2022-11-05T11:22:14.489Z,101587.47
2022-11-05T11:23:18.869Z,101581.34
2022-11-05T11:24:23.397Z,101583.94
2022-11-05T11:25:29.340Z,101580.78
2022-11-05T11:26:34.516Z,101577.75
2022-11-05T11:27:38.657Z,101584.38
2022-11-05T11:28:47.262Z,101590.69
2022-11-05T11:29:59.500Z,101585.41
2022-11-05T11:31:07.240Z,101587.72
2022-11-05T11:32:14.499Z,101591.16
2022-11-05T11:33:23.773Z,101590.09
2022-11-05T11:34:30.735Z,101591.09
2022-11-05T11:35:38.758Z,101590.63
2022-11-05T11:36:47.070Z,101590.00
2022-11-05T11:37:52.228Z,101588.44
2022-11-05T11:39:01.290Z,101600.41
2022-11-05T11:40:15.503Z,101593.28
2022-11-05T11:41:27.177Z,101593.16
2022-11-05T11:42:32.793Z,101593.44
2022-11-05T11:43:40.391Z,101600.28
2022-11-05T11:44:45.092Z,101610.34
2022-11-05T11:45:51.307Z,101609.81
2022-11-05T11:46:57.965Z,101607.88
2022-11-05T11:48:04.621Z,101604.41
2022-11-05T11:49:33.465Z,101603.41
2022-11-05T11:50:39.550Z,101600.25
2022-11-05T11:51:50.115Z,101602.63
2022-11-05T11:52:52.842Z,101605.03
2022-11-05T11:53:59.281Z,101602.41
2022-11-05T11:55:19.860Z,101605.03
2022-11-05T11:56:23.755Z,101602.38
2022-11-05T11:57:27.820Z,101604.97
2022-11-05T11:58:39.853Z,101609.47
2022-11-05T12:00:09.189Z,101607.56
2022-11-05T12:01:18.516Z,101606.53
2022-11-05T12:03:01.899Z,101605.50
2022-11-05T12:04:18.242Z,101596.47
2022-11-05T12:05:34.011Z,101597.31
2022-11-05T12:06:46.256Z,101599.94
2022-11-05T12:07:53.320Z,101603.13
2022-11-05T12:09:06.712Z,101598.59
2022-11-05T12:10:23.026Z,101593.59
2022-11-05T12:11:30.912Z,101589.91
2022-11-05T12:12:43.793Z,101593.34
2022-11-05T12:14:07.462Z,101594.94
2022-11-05T12:15:37.460Z,101594.72
2022-11-05T12:16:58.813Z,101600.50
2022-11-05T12:18:05.034Z,101598.63
2022-11-05T12:19:22.898Z,101590.94
2022-11-05T12:20:36.539Z,101597.31
2022-11-05T12:21:52.971Z,101600.97
2022-11-05T12:23:14.619Z,101598.56
2022-11-05T12:24:45.324Z,101594.38
2022-11-05T12:25:57.082Z,101594.00
2022-11-05T12:27:12.808Z,101596.09
2022-11-05T12:28:31.061Z,101591.41
2022-11-05T12:29:50.082Z,101586.91
2022-11-05T12:31:01.105Z,101581.59
2022-11-05T12:32:31.799Z,101579.84
2022-11-05T12:33:45.016Z,101580.91
2022-11-05T12:34:56.230Z,101571.91
2022-11-05T12:36:14.661Z,101576.84
2022-11-05T12:37:34.685Z,101579.75
2022-11-05T12:38:55.893Z,101574.78
2022-11-05T12:40:21.852Z,101581.38
2022-11-05T12:41:28.157Z,101574.72
2022-11-05T12:42:45.339Z,101578.47
2022-11-05T12:43:59.821Z,101572.56
2022-11-05T12:45:13.819Z,101564.56
2022-11-05T12:46:28.441Z,101564.66
2022-11-05T12:48:01.994Z,101559.38
2022-11-05T12:49:42.824Z,101562.28
2022-11-05T12:50:52.822Z,101553.84
2022-11-05T12:52:11.906Z,101542.41
2022-11-05T12:53:33.410Z,101550.38
2022-11-05T12:54:47.202Z,101534.75
2022-11-05T12:55:51.428Z,101540.84
2022-11-05T12:56:58.864Z,101538.44
2022-11-05T12:58:10.445Z,101535.28
2022-11-05T12:59:22.032Z,101531.03
2022-11-05T13:00:25.999Z,101542.44
2022-11-05T13:01:36.736Z,101531.03
2022-11-05T13:02:45.474Z,101532.97
2022-11-05T13:03:54.942Z,101531.06
2022-11-05T13:05:01.929Z,101541.44
2022-11-05T13:06:11.607Z,101541.44
2022-11-05T13:07:19.199Z,101528.72
2022-11-05T13:08:25.438Z,101538.28
2022-11-05T13:09:35.575Z,101540.69
2022-11-05T13:10:43.145Z,101537.47
2022-11-05T13:11:52.031Z,101542.75
2022-11-05T13:13:02.291Z,101540.94
2022-11-05T13:14:10.361Z,101538.78
2022-11-05T13:15:24.984Z,101545.09
2022-11-05T13:16:33.902Z,101541.41
2022-11-05T13:17:50.430Z,101542.19
2022-11-05T13:18:56.680Z,101535.03
2022-11-05T13:20:07.174Z,101544.06
2022-11-05T13:21:13.286Z,101541.41
2022-11-05T13:22:23.350Z,101539.28
2022-11-05T13:23:34.187Z,101540.63
2022-11-05T13:24:41.039Z,101543.03
2022-11-05T13:25:50.768Z,101540.59
2022-11-05T13:26:57.621Z,101538.19
2022-11-05T13:28:06.751Z,101537.97
2022-11-05T13:29:21.742Z,101527.09
2022-11-05T13:30:26.258Z,101524.13
2022-11-05T13:31:34.489Z,101529.16